Latest Weather Observations for Friendly Beaches

IDT60801

Issued at 9:31 am EST Saturday 23 May 2015 (issued every 30 minutes, with the page automatically refreshed every 10 minutes)

About weather observations | Map of weather stations | Latest weather observations for TAS | Other Formats
Station Details ID: 092114 Name: FRIENDLY BEACHES Lat: -42.00 Lon: 148.28 Height: 55.0 m
Data from the previous 72 hours. | See also: Recent months at Friendly Beaches
Date/Time
EST
Temp
°C
App
Temp
°C
Dew
Point
Rel
Hum
%
Delta-T
°C
Wind Press
QNH
hPa
Press
MSL
hPa
Rain
since 9 am
mm
Dir
 
Spd
km/h
Gust
km/h
Spd
kts
Gust
kts
23/09:30am 6.7 3.4 2.6 75 1.7 WNW 9 13 5 7 1028.6 1028.6 0.0
23/09:00am 5.4 2.0 1.7 77 1.5 W 9 11 5 6 1028.5 1028.5 0.0
23/08:30am 4.3 0.9 1.7 83 1.0 W 9 13 5 7 1028.3 1028.3 0.0
23/08:00am 2.4 -1.1 1.2 92 0.5 WNW 9 13 5 7 1028.3 1028.3 0.0
23/07:30am 1.1 -2.7 -0.4 90 0.5 W 9 11 5 6 1028.0 1028.0 0.0
23/07:00am 2.1 -1.5 0.8 91 0.5 WNW 9 13 5 7 1027.8 1027.8 0.0
23/06:30am 3.0 -0.6 0.9 86 0.8 W 9 13 5 7 1027.8 1027.8 0.0
23/06:00am 4.0 0.5 1.0 81 1.2 WNW 9 11 5 6 1027.7 1027.7 0.0
23/05:30am 4.1 0.2 1.3 82 1.1 W 11 13 6 7 1027.4 1027.4 0.0
23/05:00am 3.9 0.0 1.4 84 1.0 WNW 11 13 6 7 1027.3 1027.3 0.0
23/04:30am 4.0 0.1 1.4 83 1.0 WNW 11 11 6 6 1027.1 1027.1 0.0
23/04:00am 4.2 0.8 1.6 83 1.0 W 9 9 5 5 1027.2 1027.2 0.0
23/03:30am 4.4 1.0 1.8 83 1.0 W 9 9 5 5 1027.2 1027.2 0.0
23/03:00am 4.7 1.3 1.9 82 1.1 W 9 9 5 5 1027.3 1027.3 0.0
23/02:30am 4.3 0.9 1.8 84 1.0 W 9 9 5 5 1027.3 1027.3 0.0
23/02:00am 4.6 1.2 2.0 83 1.0 W 9 11 5 6 1027.4 1027.4 0.0
23/01:30am 5.5 1.7 2.0 78 1.4 W 11 13 6 7 1027.5 1027.5 0.0
23/01:00am 6.0 2.6 2.1 76 1.6 W 9 11 5 6 1027.4 1027.4 0.0
23/12:30am 6.5 3.1 2.0 73 1.8 WSW 9 13 5 7 1027.6 1027.6 0.0
23/12:00am 7.0 3.6 2.1 71 2.0 WSW 9 11 5 6 1027.7 1027.7 0.0
 
Date/Time
EST
Temp
°C
App
Temp
°C
Dew
Point
Rel
Hum
%
Delta-T
°C
Wind Press
QNH
hPa
Press
MSL
hPa
Rain
since 9 am
mm
Dir
 
Spd
km/h
Gust
km/h
Spd
kts
Gust
kts
22/11:30pm 7.1 3.0 2.2 71 2.0 WSW 13 17 7 9 1027.7 1027.7 0.0
22/11:00pm 7.1 3.3 2.0 70 2.1 WSW 11 19 6 10 1027.8 1027.8 0.0
22/10:30pm 7.2 3.1 2.1 70 2.1 WSW 13 17 7 9 1027.9 1027.9 0.0
22/10:00pm 6.8 3.1 2.1 72 1.9 WSW 11 17 6 9 1027.8 1027.8 0.0
22/09:30pm 7.3 3.6 2.2 70 2.1 WSW 11 17 6 9 1027.7 1027.7 0.0
22/09:00pm 7.0 3.7 2.7 74 1.8 W 9 15 5 8 1027.4 1027.4 0.0
22/08:30pm 6.9 3.3 2.8 75 1.7 W 11 13 6 7 1027.4 1027.4 0.0
22/08:00pm 6.5 3.4 3.5 81 1.3 WNW 9 13 5 7 1027.2 1027.2 0.0
22/07:30pm 6.2 2.7 3.7 84 1.1 WNW 11 13 6 7 1027.0 1027.0 0.0
22/07:00pm 7.0 4.4 4.1 82 1.2 WSW 7 7 4 4 1026.7 1026.7 0.0
22/06:30pm 6.8 4.2 4.1 83 1.2 W 7 9 4 5 1026.6 1026.6 0.0
22/06:00pm 7.5 4.5 4.1 79 1.5 WNW 9 11 5 6 1026.5 1026.5 0.0
22/05:30pm 8.0 5.4 4.0 76 1.7 NW 7 9 4 5 1026.3 1026.3 0.0
22/05:00pm 8.5 5.8 3.9 73 2.0 NNE 7 9 4 5 1026.0 1026.0 0.0
22/04:30pm 9.7 6.7 4.1 68 2.5 NNE 9 11 5 6 1026.1 1026.1 0.0
22/04:00pm 10.5 7.5 4.2 65 2.8 NNE 9 11 5 6 1026.0 1026.0 0.0
22/03:30pm 12.1 9.8 4.6 60 3.4 NE 6 11 3 6 1025.7 1025.7 0.0
22/03:00pm 13.4 11.7 4.0 53 4.3 S 2 6 1 3 1025.5 1025.5 0.0
22/02:30pm 13.7 11.2 3.5 50 4.6 W 6 11 3 6 1025.4 1025.4 0.0
22/02:00pm 13.2 10.3 2.7 49 4.6 WSW 7 13 4 7 1025.6 1025.6 0.0
22/01:30pm 12.8 9.5 2.6 50 4.5 WSW 9 13 5 7 1025.7 1025.7 0.0
22/01:00pm 12.5 9.6 2.4 50 4.4 SW 7 11 4 6 1026.2 1026.2 0.0
22/12:30pm 12.2 9.3 2.4 51 4.3 WNW 7 13 4 7 1026.6 1026.6 0.0
22/12:00pm 12.1 8.9 2.8 53 4.0 SSW 9 13 5 7 1027.1 1027.1 0.0
22/11:30am 11.6 7.9 2.6 54 3.9 SSW 11 24 6 13 1027.6 1027.6 0.0
22/11:00am 11.2 7.9 2.5 55 3.7 WSW 9 17 5 9 1028.2 1028.2 0.0
22/10:30am 10.6 7.3 2.7 58 3.4 WSW 9 17 5 9 1028.4 1028.4 0.0
22/10:00am 9.5 5.8 2.1 60 3.1 WSW 11 19 6 10 1028.4 1028.4 0.0
22/09:30am 9.1 5.8 2.2 62 2.9 WSW 9 17 5 9 1028.3 1028.3 0.0
22/09:00am 8.7 5.0 2.1 63 2.7 WSW 11 17 6 9 1028.4 1028.4 0.0
22/08:30am 8.3 4.5 1.7 63 2.7 WSW 11 20 6 11 1028.4 1028.4 0.0
22/08:00am 8.2 4.4 2.0 65 2.5 WSW 11 17 6 9 1028.4 1028.4 0.0
22/07:30am 8.1 4.7 1.9 65 2.6 WSW 9 17 5 9 1028.1 1028.1 0.0
22/07:00am 8.1 4.4 2.1 66 2.5 WSW 11 17 6 9 1027.9 1027.9 0.0
22/06:30am 8.2 4.5 2.2 66 2.5 WSW 11 20 6 11 1027.8 1027.8 0.0
22/06:00am 8.2 4.8 2.0 65 2.6 WSW 9 19 5 10 1027.6 1027.6 0.0
22/05:30am 8.1 4.7 2.1 66 2.5 SW 9 17 5 9 1027.5 1027.5 0.0
22/05:00am 8.3 4.6 2.5 67 2.4 WSW 11 17 6 9 1027.3 1027.3 0.0
22/04:30am 8.4 5.5 2.8 68 2.4 W 7 11 4 6 1027.2 1027.2 0.0
22/04:00am 8.4 5.7 2.8 68 2.4 WSW 6 9 3 5 1027.1 1027.1 0.0
22/03:30am 8.5 5.6 2.7 67 2.5 WSW 7 13 4 7 1027.2 1027.2 0.0
22/03:00am 8.5 5.7 3.4 70 2.2 WSW 7 11 4 6 1027.4 1027.4 0.0
22/02:30am 8.6 5.8 3.2 69 2.3 WSW 7 9 4 5 1027.4 1027.4 0.0
22/02:00am 8.7 5.5 3.1 68 2.4 WSW 9 17 5 9 1027.6 1027.6 0.0
22/01:30am 8.7 5.5 3.3 69 2.3 WSW 9 15 5 8 1027.6 1027.6 0.0
22/01:00am 8.7 5.2 3.3 69 2.3 WSW 11 17 6 9 1027.7 1027.7 0.0
22/12:30am 8.7 5.6 3.7 71 2.2 WSW 9 13 5 7 1027.7 1027.7 0.0
22/12:00am 8.6 5.5 3.8 72 2.1 WSW 9 13 5 7 1027.7 1027.7 0.0
 
Date/Time
EST
Temp
°C
App
Temp
°C
Dew
Point
Rel
Hum
%
Delta-T
°C
Wind Press
QNH
hPa
Press
MSL
hPa
Rain
since 9 am
mm
Dir
 
Spd
km/h
Gust
km/h
Spd
kts
Gust
kts
21/11:30pm 8.6 6.0 4.0 73 2.0 W 7 9 4 5 1027.7 1027.7 0.0
21/11:00pm 8.8 5.7 3.8 71 2.2 WSW 9 17 5 9 1027.8 1027.8 0.0
21/10:30pm 8.8 5.7 3.6 70 2.3 WSW 9 15 5 8 1027.9 1027.9 0.0
21/10:00pm 8.8 5.8 4.2 73 2.0 W 9 13 5 7 1027.9 1027.9 0.0
21/09:30pm 8.8 5.9 4.6 75 1.9 WSW 9 13 5 7 1027.8 1027.8 0.0
21/09:00pm 9.0 6.1 4.8 75 1.9 W 9 15 5 8 1027.8 1027.8 0.0
21/08:30pm 9.2 5.6 4.8 74 2.0 SW 13 19 7 10 1027.7 1027.7 0.0
21/08:00pm 9.3 6.0 4.7 73 2.0 S 11 22 6 12 1027.7 1027.7 0.0
21/07:30pm 9.3 6.0 4.7 73 2.1 SW 11 19 6 10 1027.5 1027.5 0.0
21/07:00pm 9.3 6.7 4.3 71 2.2 WSW 7 13 4 7 1027.2 1027.2 0.0
21/06:30pm 9.7 6.0 4.7 71 2.2 SW 13 20 7 11 1027.0 1027.0 0.0
21/06:00pm 9.9 5.9 4.7 70 2.3 SW 15 24 8 13 1026.7 1026.7 0.0
21/05:30pm 9.9 6.2 4.7 70 2.3 SSW 13 22 7 12 1026.4 1026.4 0.0
21/05:00pm 9.8 6.8 4.0 67 2.5 SSW 9 13 5 7 1026.1 1026.1 0.0
21/04:30pm 10.2 7.1 3.7 64 2.9 SW 9 17 5 9 1025.9 1025.9 0.0
21/04:00pm 10.3 7.6 3.8 64 2.8 SW 7 13 4 7 1025.7 1025.7 0.0
21/03:30pm 10.6 7.6 3.9 63 3.0 SSW 9 19 5 10 1025.5 1025.5 0.0
21/03:00pm 10.7 7.2 3.7 62 3.1 SSW 11 20 6 11 1025.3 1025.3 0.0
21/02:30pm 10.8 6.2 3.8 62 3.1 SSW 17 30 9 16 1025.0 1025.0 0.0
21/02:00pm 11.0 7.0 4.7 65 2.8 SSW 15 28 8 15 1024.9 1024.9 0.0
21/01:30pm 11.3 7.4 5.2 66 2.8 SW 15 24 8 13 1024.8 1024.8 0.0
21/01:00pm 11.0 6.7 5.3 68 2.6 SSW 17 28 9 15 1024.9 1024.9 0.0
21/12:30pm 11.1 7.6 5.4 68 2.6 SW 13 20 7 11 1024.8 1024.8 0.0
21/12:00pm 11.0 7.0 5.1 67 2.7 SW 15 24 8 13 1025.0 1025.0 0.0
21/11:30am 11.3 7.5 5.6 68 2.6 SW 15 24 8 13 1025.0 1025.0 0.0
21/11:00am 12.1 8.3 5.9 66 2.9 WSW 15 24 8 13 1025.0 1025.0 0.0
21/10:30am 11.2 7.4 5.9 70 2.5 SSW 15 22 8 12 1024.8 1024.8 0.0
21/10:00am 10.5 6.4 6.3 75 2.0 SW 17 24 9 13 1024.6 1024.6 0.0
21/09:30am 10.1 6.7 5.7 74 2.0 WSW 13 19 7 10 1024.1 1024.1 0.0
21/09:00am 9.4 6.0 5.8 78 1.6 SW 13 22 7 12 1023.9 1023.9 0.0
21/08:30am 8.4 4.8 4.8 78 1.6 WSW 13 24 7 13 1023.5 1023.5 0.0
21/08:00am 8.3 4.6 4.3 76 1.7 WSW 13 24 7 13 1023.2 1023.2 0.0
21/07:30am 7.7 4.2 3.7 76 1.7 WSW 11 15 6 8 1022.6 1022.6 0.0
21/07:00am 7.2 3.7 3.3 76 1.6 W 11 17 6 9 1022.1 1022.1 0.0
21/06:30am 6.4 2.4 3.0 79 1.4 W 13 17 7 9 1021.3 1021.3 0.0
21/06:00am 5.9 1.5 2.5 79 1.4 W 15 19 8 10 1020.7 1020.7 0.0
21/05:30am 5.7 1.2 2.4 79 1.3 W 15 19 8 10 1020.2 1020.2 0.0
21/05:00am 6.2 2.1 2.5 77 1.5 W 13 20 7 11 1020.0 1020.0 0.0
21/04:30am 5.9 1.9 2.9 81 1.2 W 13 20 7 11 1019.4 1019.5 0.0
21/04:00am 5.7 2.5 3.0 83 1.1 WNW 9 13 5 7 1019.2 1019.3 0.0
21/03:30am 6.0 2.8 3.3 83 1.1 W 9 13 5 7 1019.1 1019.2 0.0
21/03:00am 6.8 3.3 3.6 80 1.4 W 11 15 6 8 1019.0 1019.1 0.0
21/02:30am 7.8 4.0 3.8 76 1.7 WSW 13 24 7 13 1018.8 1018.9 0.0
21/02:00am 9.2 6.3 6.6 84 1.2 SW 11 17 6 9 1018.5 1018.6 0.0
21/01:30am 9.2 6.8 6.8 85 1.1 SSW 9 15 5 8 1018.0 1018.1 0.0
21/01:00am 9.3 6.9 6.9 85 1.1 SSW 9 20 5 11 1017.8 1017.9 0.0
21/12:30am 9.3 7.4 6.9 85 1.1 SW 6 11 3 6 1017.4 1017.5 0.0
21/12:00am 9.4 7.6 7.0 85 1.1 SSW 6 13 3 7 1017.2 1017.3 0.0
 
Date/Time
EST
Temp
°C
App
Temp
°C
Dew
Point
Rel
Hum
%
Delta-T
°C
Wind Press
QNH
hPa
Press
MSL
hPa
Rain
since 9 am
mm
Dir
 
Spd
km/h
Gust
km/h
Spd
kts
Gust
kts
20/11:30pm 9.3 7.3 7.3 87 0.9 WSW 7 11 4 6 1017.0 1017.1 0.0
20/11:00pm 9.2 7.3 7.6 90 0.8 W 7 11 4 6 1017.0 1017.1 0.0
20/10:30pm 9.0 7.2 7.1 88 0.9 W 6 9 3 5 1016.7 1016.8 0.0
20/10:00pm 9.3 7.4 7.4 88 0.9 WSW 7 11 4 6 1016.6 1016.7 0.0
20/09:30pm 9.4 7.8 7.8 90 0.8 SSW 6 13 3 7 1016.6 1016.7 0.0
20/09:00pm 9.6 7.4 8.0 90 0.8 SSW 9 17 5 9 1016.3 1016.4 0.0
20/08:30pm 9.6 7.7 7.7 88 0.9 WSW 7 11 4 6 1015.9 1016.0 0.0
20/08:00pm 9.4 7.6 7.8 90 0.8 W 7 9 4 5 1015.3 1015.3 0.0
20/07:30pm 9.1 7.2 7.7 91 0.7 WNW 7 7 4 4 1014.7 1014.7 0.0
20/07:00pm 9.7 7.9 7.8 88 0.9 W 7 11 4 6 1014.3 1014.3 0.0
20/06:30pm 9.8 8.5 7.6 86 1.1 WNW 4 6 2 3 1014.1 1014.1 0.0
20/06:00pm 10.0 8.6 7.4 84 1.2 W 4 7 2 4 1013.9 1013.9 0.0
20/05:30pm 10.3 8.6 7.5 83 1.3 SW 6 9 3 5 1013.5 1013.5 0.0
20/05:00pm 10.5 8.2 7.6 82 1.4 SSW 9 15 5 8 1013.3 1013.3 0.0
20/04:30pm 10.7 9.4 7.8 82 1.4 SW 4 7 2 4 1012.9 1012.9 0.0
20/04:00pm 10.8 8.3 8.0 83 1.4 SSW 11 19 6 10 1012.5 1012.5 0.0
20/03:30pm 11.1 9.0 8.1 82 1.5 SSW 9 15 5 8 1012.1 1012.1 0.0
20/03:00pm 11.4 9.7 8.4 82 1.5 SSW 7 15 4 8 1011.7 1011.7 0.0
20/02:30pm 11.4 9.9 9.0 85 1.2 SSW 7 13 4 7 1011.3 1011.3 0.0
20/02:00pm 11.4 10.1 9.1 86 1.2 SSW 6 13 3 7 1011.2 1011.2 0.0
20/01:30pm 11.3 9.0 9.0 86 1.1 S 11 19 6 10 1010.9 1010.9 0.0
20/01:00pm 11.8 8.7 8.8 82 1.5 SSW 15 24 8 13 1010.9 1010.9 0.0
20/12:30pm 12.8 10.6 9.4 80 1.7 SSW 11 19 6 10 1011.0 1011.0 0.0
20/12:00pm 12.5 10.4 9.7 83 1.4 SW 11 19 6 10 1011.1 1011.1 0.0
20/11:30am 11.9 9.4 9.6 86 1.2 SSW 13 22 7 12 1011.1 1011.1 0.0
20/11:00am 12.4 10.0 10.1 86 1.2 SSW 13 26 7 14 1011.3 1011.3 0.0
20/10:30am 12.6 9.9 10.3 86 1.2 S 15 30 8 16 1011.1 1011.1 0.0
20/10:00am 12.1 10.7 9.5 84 1.3 SSW 7 17 4 9 1011.0 1011.0 0.0

Other Formats:

Comma delimited format used in spreadsheet applications
http://www.bom.gov.au/fwo/IDT60801/IDT60801.94987.axf

JavaScript Object Notation format (JSON) in row-major order
http://www.bom.gov.au/fwo/IDT60801/IDT60801.94987.json